ENST/SSJ METAR and TAF weather

Enter ICAO airport designator
Station Type Date Time Source
ENST METAR 2021/07/28 20:50 UTC NOAA

ENST 282050Z 03008KT 9999 FEW050CB 20/14 Q1004 RMK WIND 300FT 04011KT


Station Type Date Time Source
ENST Decoded METAR 2021/07/28 20:50 UTC NOAA

Sandnessjoen / Stokka, Norway (ENST) 65-58N 012-28E 17M
Jul 28, 2021 - 04:50 PM EDT / 2021.07.28 2050 UTC
Wind: from the NNE (030 degrees) at 9 MPH (8 KT):0
Visibility: greater than 7 mile(s):0
Sky conditions: mostly clear
Weather: Cumulonimbus clouds observed
Temperature: 68 F (20 C)
Dew Point: 57 F (14 C)
Relative Humidity: 68%
Pressure (altimeter): 29.65 in. Hg (1004 hPa)
ob: ENST 282050Z 03008KT 9999 FEW050CB 20/14 Q1004 RMK WIND 300FT 04011KT
cycle: 21

Station Type Date Time Source
ENST TAF UTC NOAA

Error!

Example: see airport list